Fruit Heights, Utah
Current Conditions -  °F | °C
As of 9:58 AM on Friday 24 Oct 2014 (Local Time) from KHIF Reporting Station
Clear Clear  
Wind Chill: 59°   Ceiling: Unl
Heat Index: 59°   Visibility: 10mi
Dew Point: 33°   Wind: 8mph
Humidity: 38%   Direction: 100°E
Pressure: 30.2"   Gusts: NA
Location:  41.0365°N, 111.927°W
Report Text: KHIF 241558Z AUTO 10007KT 10SM CLR 15/01 A3020 RMK AO2 SLP191 T01500006
Loading
Personal Weather Stations






























Interactive Weather Map
Tropical Storm Tracking
New forecast layout! Learn more

10-Day Weather Forecast

Advertisements
Track Severe Weather on mobile